sensor_id;sensor_type;location;lat;lon;timestamp;temperature;humidity
5938;DHT22;2994;51.220;4.412;2022-12-10T00:01:58;3.85;69.74
5938;DHT22;2994;51.220;4.412;2022-12-10T00:04:23;3.85;69.68
5938;DHT22;2994;51.220;4.412;2022-12-10T00:06:49;3.84;69.66
5938;DHT22;2994;51.220;4.412;2022-12-10T00:09:17;3.78;69.93
5938;DHT22;2994;51.220;4.412;2022-12-10T00:11:43;3.74;70.00
5938;DHT22;2994;51.220;4.412;2022-12-10T00:14:09;3.77;70.07
5938;DHT22;2994;51.220;4.412;2022-12-10T00:16:36;3.71;70.13
5938;DHT22;2994;51.220;4.412;2022-12-10T00:19:03;3.73;70.11
5938;DHT22;2994;51.220;4.412;2022-12-10T00:21:31;3.69;70.29
5938;DHT22;2994;51.220;4.412;2022-12-10T00:23:58;3.70;70.29
5938;DHT22;2994;51.220;4.412;2022-12-10T00:26:29;3.73;70.18
5938;DHT22;2994;51.220;4.412;2022-12-10T00:28:55;3.74;70.15
5938;DHT22;2994;51.220;4.412;2022-12-10T00:31:23;3.72;70.12
5938;DHT22;2994;51.220;4.412;2022-12-10T00:33:49;3.65;70.34
5938;DHT22;2994;51.220;4.412;2022-12-10T00:36:18;3.67;70.13
5938;DHT22;2994;51.220;4.412;2022-12-10T00:38:45;3.64;70.29
5938;DHT22;2994;51.220;4.412;2022-12-10T00:41:11;3.64;70.35
5938;DHT22;2994;51.220;4.412;2022-12-10T00:43:37;3.67;70.29
5938;DHT22;2994;51.220;4.412;2022-12-10T00:46:03;3.64;70.42
5938;DHT22;2994;51.220;4.412;2022-12-10T00:48:29;3.60;70.56
5938;DHT22;2994;51.220;4.412;2022-12-10T00:51:06;3.60;70.59
5938;DHT22;2994;51.220;4.412;2022-12-10T00:53:33;3.65;70.37
5938;DHT22;2994;51.220;4.412;2022-12-10T00:55:59;3.63;70.52
5938;DHT22;2994;51.220;4.412;2022-12-10T00:58:30;3.59;70.71
5938;DHT22;2994;51.220;4.412;2022-12-10T01:01:16;3.65;70.49
5938;DHT22;2994;51.220;4.412;2022-12-10T01:03:43;3.61;70.39
5938;DHT22;2994;51.220;4.412;2022-12-10T01:06:17;3.59;70.42
5938;DHT22;2994;51.220;4.412;2022-12-10T01:08:44;3.58;70.45
5938;DHT22;2994;51.220;4.412;2022-12-10T01:11:11;3.44;70.79
5938;DHT22;2994;51.220;4.412;2022-12-10T01:13:37;3.50;70.54
5938;DHT22;2994;51.220;4.412;2022-12-10T01:16:04;3.53;70.72
5938;DHT22;2994;51.220;4.412;2022-12-10T01:18:30;3.48;70.86
5938;DHT22;2994;51.220;4.412;2022-12-10T01:21:18;3.48;70.68
5938;DHT22;2994;51.220;4.412;2022-12-10T01:23:47;3.43;70.87
5938;DHT22;2994;51.220;4.412;2022-12-10T01:26:16;3.42;71.00
5938;DHT22;2994;51.220;4.412;2022-12-10T01:28:43;3.46;70.64
5938;DHT22;2994;51.220;4.412;2022-12-10T01:31:11;3.38;70.92
5938;DHT22;2994;51.220;4.412;2022-12-10T01:33:37;3.40;70.89
5938;DHT22;2994;51.220;4.412;2022-12-10T01:38:33;3.36;70.95
5938;DHT22;2994;51.220;4.412;2022-12-10T01:41:00;3.35;71.05
5938;DHT22;2994;51.220;4.412;2022-12-10T01:43:26;3.32;71.13
5938;DHT22;2994;51.220;4.412;2022-12-10T01:45:52;3.31;71.38
5938;DHT22;2994;51.220;4.412;2022-12-10T01:48:18;3.25;71.73
5938;DHT22;2994;51.220;4.412;2022-12-10T01:50:44;3.26;71.70
5938;DHT22;2994;51.220;4.412;2022-12-10T01:53:10;3.30;71.71
5938;DHT22;2994;51.220;4.412;2022-12-10T01:55:50;3.23;72.35
5938;DHT22;2994;51.220;4.412;2022-12-10T01:58:17;3.23;71.90
5938;DHT22;2994;51.220;4.412;2022-12-10T02:00:51;3.32;71.58
5938;DHT22;2994;51.220;4.412;2022-12-10T02:06:23;3.32;71.51
5938;DHT22;2994;51.220;4.412;2022-12-10T02:09:07;3.21;71.90
5938;DHT22;2994;51.220;4.412;2022-12-10T02:16:58;3.26;71.54
5938;DHT22;2994;51.220;4.412;2022-12-10T02:22:18;3.23;71.79
5938;DHT22;2994;51.220;4.412;2022-12-10T02:24:46;3.23;71.83
5938;DHT22;2994;51.220;4.412;2022-12-10T02:29:43;3.18;71.93
5938;DHT22;2994;51.220;4.412;2022-12-10T02:32:12;3.23;71.96
5938;DHT22;2994;51.220;4.412;2022-12-10T02:34:49;3.23;71.91
5938;DHT22;2994;51.220;4.412;2022-12-10T02:37:21;3.21;71.84
5938;DHT22;2994;51.220;4.412;2022-12-10T02:39:50;3.19;71.86
5938;DHT22;2994;51.220;4.412;2022-12-10T02:42:18;3.20;71.74
5938;DHT22;2994;51.220;4.412;2022-12-10T02:44:47;3.17;71.81
5938;DHT22;2994;51.220;4.412;2022-12-10T02:47:15;3.18;71.86
5938;DHT22;2994;51.220;4.412;2022-12-10T02:49:42;3.19;71.74
5938;DHT22;2994;51.220;4.412;2022-12-10T02:52:13;3.12;72.09
5938;DHT22;2994;51.220;4.412;2022-12-10T02:54:47;3.14;71.98
5938;DHT22;2994;51.220;4.412;2022-12-10T02:59:48;3.14;72.23
5938;DHT22;2994;51.220;4.412;2022-12-10T03:02:25;3.14;72.14
5938;DHT22;2994;51.220;4.412;2022-12-10T03:05:13;3.14;72.26
5938;DHT22;2994;51.220;4.412;2022-12-10T03:07:48;3.17;72.19
5938;DHT22;2994;51.220;4.412;2022-12-10T03:10:35;3.16;72.47
5938;DHT22;2994;51.220;4.412;2022-12-10T03:13:07;3.19;72.18
5938;DHT22;2994;51.220;4.412;2022-12-10T03:15:38;3.17;72.13
5938;DHT22;2994;51.220;4.412;2022-12-10T03:18:05;3.19;72.06
5938;DHT22;2994;51.220;4.412;2022-12-10T03:20:33;3.20;72.03
5938;DHT22;2994;51.220;4.412;2022-12-10T03:22:59;3.18;72.19
5938;DHT22;2994;51.220;4.412;2022-12-10T03:25:28;3.20;72.23
5938;DHT22;2994;51.220;4.412;2022-12-10T03:27:55;3.19;72.22
5938;DHT22;2994;51.220;4.412;2022-12-10T03:30:23;3.21;72.30
5938;DHT22;2994;51.220;4.412;2022-12-10T03:32:49;3.20;72.38
5938;DHT22;2994;51.220;4.412;2022-12-10T03:35:15;3.23;72.38
5938;DHT22;2994;51.220;4.412;2022-12-10T03:37:42;3.24;72.41
5938;DHT22;2994;51.220;4.412;2022-12-10T03:40:09;3.21;72.51
5938;DHT22;2994;51.220;4.412;2022-12-10T03:42:36;3.20;72.61
5938;DHT22;2994;51.220;4.412;2022-12-10T03:45:02;3.23;72.49
5938;DHT22;2994;51.220;4.412;2022-12-10T03:47:28;3.25;72.51
5938;DHT22;2994;51.220;4.412;2022-12-10T03:49:53;3.29;72.49
5938;DHT22;2994;51.220;4.412;2022-12-10T03:52:19;3.32;72.38
5938;DHT22;2994;51.220;4.412;2022-12-10T03:54:44;3.32;72.22
5938;DHT22;2994;51.220;4.412;2022-12-10T03:57:10;3.33;72.29
5938;DHT22;2994;51.220;4.412;2022-12-10T03:59:35;3.30;72.35
5938;DHT22;2994;51.220;4.412;2022-12-10T04:02:01;3.33;72.29
5938;DHT22;2994;51.220;4.412;2022-12-10T04:04:26;3.34;72.31
5938;DHT22;2994;51.220;4.412;2022-12-10T04:06:52;3.36;72.26
5938;DHT22;2994;51.220;4.412;2022-12-10T04:09:17;3.33;72.26
5938;DHT22;2994;51.220;4.412;2022-12-10T04:11:43;3.32;72.19
5938;DHT22;2994;51.220;4.412;2022-12-10T04:14:11;3.33;72.22
5938;DHT22;2994;51.220;4.412;2022-12-10T04:16:55;3.32;72.20
5938;DHT22;2994;51.220;4.412;2022-12-10T04:19:21;3.28;72.38
5938;DHT22;2994;51.220;4.412;2022-12-10T04:21:47;3.23;72.43
5938;DHT22;2994;51.220;4.412;2022-12-10T04:24:33;3.29;72.33
5938;DHT22;2994;51.220;4.412;2022-12-10T04:27:26;3.28;72.49
5938;DHT22;2994;51.220;4.412;2022-12-10T04:29:52;3.25;72.58
5938;DHT22;2994;51.220;4.412;2022-12-10T04:32:19;3.23;72.65
5938;DHT22;2994;51.220;4.412;2022-12-10T04:34:45;3.24;72.76
5938;DHT22;2994;51.220;4.412;2022-12-10T04:37:10;3.26;72.76
5938;DHT22;2994;51.220;4.412;2022-12-10T04:39:39;3.29;72.68
5938;DHT22;2994;51.220;4.412;2022-12-10T04:42:05;3.27;72.82
5938;DHT22;2994;51.220;4.412;2022-12-10T04:44:30;3.27;72.86
5938;DHT22;2994;51.220;4.412;2022-12-10T04:46:56;3.25;73.07
5938;DHT22;2994;51.220;4.412;2022-12-10T04:49:22;3.28;73.00
5938;DHT22;2994;51.220;4.412;2022-12-10T04:51:48;3.29;72.88
5938;DHT22;2994;51.220;4.412;2022-12-10T04:54:14;3.31;72.91
5938;DHT22;2994;51.220;4.412;2022-12-10T04:56:40;3.31;72.92
5938;DHT22;2994;51.220;4.412;2022-12-10T04:59:05;3.34;72.96
5938;DHT22;2994;51.220;4.412;2022-12-10T05:01:31;3.23;73.37
5938;DHT22;2994;51.220;4.412;2022-12-10T05:04:02;3.28;73.12
5938;DHT22;2994;51.220;4.412;2022-12-10T05:06:29;3.27;72.99
5938;DHT22;2994;51.220;4.412;2022-12-10T05:08:54;3.34;72.93
5938;DHT22;2994;51.220;4.412;2022-12-10T05:11:21;3.31;72.87
5938;DHT22;2994;51.220;4.412;2022-12-10T05:13:47;3.28;72.80
5938;DHT22;2994;51.220;4.412;2022-12-10T05:16:15;3.29;72.78
5938;DHT22;2994;51.220;4.412;2022-12-10T05:18:41;3.28;72.95
5938;DHT22;2994;51.220;4.412;2022-12-10T05:21:10;3.26;73.14
5938;DHT22;2994;51.220;4.412;2022-12-10T05:23:37;3.23;73.28
5938;DHT22;2994;51.220;4.412;2022-12-10T05:26:04;3.25;73.24
5938;DHT22;2994;51.220;4.412;2022-12-10T05:28:31;3.20;73.45
5938;DHT22;2994;51.220;4.412;2022-12-10T05:30:57;3.19;73.40
5938;DHT22;2994;51.220;4.412;2022-12-10T05:33:23;3.24;73.32
5938;DHT22;2994;51.220;4.412;2022-12-10T05:35:59;3.19;73.38
5938;DHT22;2994;51.220;4.412;2022-12-10T05:38:28;3.23;73.38
5938;DHT22;2994;51.220;4.412;2022-12-10T05:40:54;3.18;73.61
5938;DHT22;2994;51.220;4.412;2022-12-10T05:43:20;3.19;73.64
5938;DHT22;2994;51.220;4.412;2022-12-10T05:45:46;3.20;73.47
5938;DHT22;2994;51.220;4.412;2022-12-10T05:48:13;3.19;73.83
5938;DHT22;2994;51.220;4.412;2022-12-10T05:50:39;3.11;74.21
5938;DHT22;2994;51.220;4.412;2022-12-10T05:53:05;3.20;73.96
5938;DHT22;2994;51.220;4.412;2022-12-10T05:55:30;3.21;73.86
5938;DHT22;2994;51.220;4.412;2022-12-10T05:57:58;3.24;73.71
5938;DHT22;2994;51.220;4.412;2022-12-10T06:00:24;3.25;73.64
5938;DHT22;2994;51.220;4.412;2022-12-10T06:02:50;3.24;73.69
5938;DHT22;2994;51.220;4.412;2022-12-10T06:05:16;3.26;73.64
5938;DHT22;2994;51.220;4.412;2022-12-10T06:07:42;3.24;73.67
5938;DHT22;2994;51.220;4.412;2022-12-10T06:10:07;3.17;73.71
5938;DHT22;2994;51.220;4.412;2022-12-10T06:12:33;3.21;73.74
5938;DHT22;2994;51.220;4.412;2022-12-10T06:14:59;3.17;73.73
5938;DHT22;2994;51.220;4.412;2022-12-10T06:17:24;3.17;73.63
5938;DHT22;2994;51.220;4.412;2022-12-10T06:19:49;3.16;73.54
5938;DHT22;2994;51.220;4.412;2022-12-10T06:22:15;3.16;73.54
5938;DHT22;2994;51.220;4.412;2022-12-10T06:24:40;3.15;73.60
5938;DHT22;2994;51.220;4.412;2022-12-10T06:27:06;3.13;73.64
5938;DHT22;2994;51.220;4.412;2022-12-10T06:29:31;3.03;73.70
5938;DHT22;2994;51.220;4.412;2022-12-10T06:31:57;3.05;73.75
5938;DHT22;2994;51.220;4.412;2022-12-10T06:34:22;3.06;73.67
5938;DHT22;2994;51.220;4.412;2022-12-10T06:36:47;3.01;73.90
5938;DHT22;2994;51.220;4.412;2022-12-10T06:39:13;3.02;73.67
5938;DHT22;2994;51.220;4.412;2022-12-10T06:41:38;2.98;73.82
5938;DHT22;2994;51.220;4.412;2022-12-10T06:44:07;3.01;73.68
5938;DHT22;2994;51.220;4.412;2022-12-10T06:46:32;3.01;73.48
5938;DHT22;2994;51.220;4.412;2022-12-10T06:48:58;3.04;73.35
5938;DHT22;2994;51.220;4.412;2022-12-10T06:51:24;2.99;73.60
5938;DHT22;2994;51.220;4.412;2022-12-10T06:53:50;3.02;73.62
5938;DHT22;2994;51.220;4.412;2022-12-10T06:56:17;3.06;73.58
5938;DHT22;2994;51.220;4.412;2022-12-10T06:58:43;3.04;73.44
5938;DHT22;2994;51.220;4.412;2022-12-10T07:01:12;3.05;73.61
5938;DHT22;2994;51.220;4.412;2022-12-10T07:03:38;3.02;73.38
5938;DHT22;2994;51.220;4.412;2022-12-10T07:06:05;3.01;73.40
5938;DHT22;2994;51.220;4.412;2022-12-10T07:08:30;3.01;73.46
5938;DHT22;2994;51.220;4.412;2022-12-10T07:10:56;2.97;73.70
5938;DHT22;2994;51.220;4.412;2022-12-10T07:13:23;3.01;73.57
5938;DHT22;2994;51.220;4.412;2022-12-10T07:15:49;2.99;73.69
5938;DHT22;2994;51.220;4.412;2022-12-10T07:18:14;3.03;73.46
5938;DHT22;2994;51.220;4.412;2022-12-10T07:20:40;3.04;73.21
5938;DHT22;2994;51.220;4.412;2022-12-10T07:23:05;3.02;73.19
5938;DHT22;2994;51.220;4.412;2022-12-10T07:25:32;3.04;73.19
5938;DHT22;2994;51.220;4.412;2022-12-10T07:27:57;3.05;73.22
5938;DHT22;2994;51.220;4.412;2022-12-10T07:30:23;3.01;73.37
5938;DHT22;2994;51.220;4.412;2022-12-10T07:32:48;3.02;73.31
5938;DHT22;2994;51.220;4.412;2022-12-10T07:35:14;3.02;73.30
5938;DHT22;2994;51.220;4.412;2022-12-10T07:37:39;2.99;73.44
5938;DHT22;2994;51.220;4.412;2022-12-10T07:40:05;3.01;73.46
5938;DHT22;2994;51.220;4.412;2022-12-10T07:42:30;2.97;73.45
5938;DHT22;2994;51.220;4.412;2022-12-10T07:44:56;2.95;73.61
5938;DHT22;2994;51.220;4.412;2022-12-10T07:47:21;2.95;73.61
5938;DHT22;2994;51.220;4.412;2022-12-10T07:49:47;3.00;73.61
5938;DHT22;2994;51.220;4.412;2022-12-10T07:52:13;3.03;73.57
5938;DHT22;2994;51.220;4.412;2022-12-10T07:54:38;3.03;73.50
5938;DHT22;2994;51.220;4.412;2022-12-10T07:57:03;3.04;73.51
5938;DHT22;2994;51.220;4.412;2022-12-10T07:59:29;3.03;73.48
5938;DHT22;2994;51.220;4.412;2022-12-10T08:01:56;2.99;73.52
5938;DHT22;2994;51.220;4.412;2022-12-10T08:04:21;3.00;73.42
5938;DHT22;2994;51.220;4.412;2022-12-10T08:06:47;3.03;73.35
5938;DHT22;2994;51.220;4.412;2022-12-10T08:09:13;3.03;73.31
5938;DHT22;2994;51.220;4.412;2022-12-10T08:11:38;2.94;73.73
5938;DHT22;2994;51.220;4.412;2022-12-10T08:14:04;3.02;73.43
5938;DHT22;2994;51.220;4.412;2022-12-10T08:16:29;3.02;73.54
5938;DHT22;2994;51.220;4.412;2022-12-10T08:18:58;3.02;73.56
5938;DHT22;2994;51.220;4.412;2022-12-10T08:21:27;3.05;73.56
5938;DHT22;2994;51.220;4.412;2022-12-10T08:23:53;3.08;73.58
5938;DHT22;2994;51.220;4.412;2022-12-10T08:26:22;3.08;73.67
5938;DHT22;2994;51.220;4.412;2022-12-10T08:28:48;3.11;73.69
5938;DHT22;2994;51.220;4.412;2022-12-10T08:31:15;3.11;73.64
5938;DHT22;2994;51.220;4.412;2022-12-10T08:33:41;3.12;73.63
5938;DHT22;2994;51.220;4.412;2022-12-10T08:36:08;3.10;73.78
5938;DHT22;2994;51.220;4.412;2022-12-10T08:38:34;3.18;73.66
5938;DHT22;2994;51.220;4.412;2022-12-10T08:41:15;3.20;73.60
5938;DHT22;2994;51.220;4.412;2022-12-10T08:43:42;3.20;73.57
5938;DHT22;2994;51.220;4.412;2022-12-10T08:46:08;3.25;73.61
5938;DHT22;2994;51.220;4.412;2022-12-10T08:48:35;3.26;73.53
5938;DHT22;2994;51.220;4.412;2022-12-10T08:51:01;3.21;73.60
5938;DHT22;2994;51.220;4.412;2022-12-10T08:53:26;3.23;73.51
5938;DHT22;2994;51.220;4.412;2022-12-10T08:55:53;3.25;73.44
5938;DHT22;2994;51.220;4.412;2022-12-10T08:58:19;3.28;73.43
5938;DHT22;2994;51.220;4.412;2022-12-10T09:00:45;3.27;73.44
5938;DHT22;2994;51.220;4.412;2022-12-10T09:03:10;3.25;73.54
5938;DHT22;2994;51.220;4.412;2022-12-10T09:05:36;3.30;73.49
5938;DHT22;2994;51.220;4.412;2022-12-10T09:08:02;3.25;73.51
5938;DHT22;2994;51.220;4.412;2022-12-10T09:10:28;3.29;73.53
5938;DHT22;2994;51.220;4.412;2022-12-10T09:12:53;3.31;73.61
5938;DHT22;2994;51.220;4.412;2022-12-10T09:15:19;3.30;73.88
5938;DHT22;2994;51.220;4.412;2022-12-10T09:17:44;3.32;73.51
5938;DHT22;2994;51.220;4.412;2022-12-10T09:20:10;3.33;73.39
5938;DHT22;2994;51.220;4.412;2022-12-10T09:22:35;3.38;73.32
5938;DHT22;2994;51.220;4.412;2022-12-10T09:25:04;3.35;73.27
5938;DHT22;2994;51.220;4.412;2022-12-10T09:27:30;3.40;73.09
5938;DHT22;2994;51.220;4.412;2022-12-10T09:29:56;3.35;73.23
5938;DHT22;2994;51.220;4.412;2022-12-10T09:32:21;3.35;73.26
5938;DHT22;2994;51.220;4.412;2022-12-10T09:34:50;3.30;73.51
5938;DHT22;2994;51.220;4.412;2022-12-10T09:37:16;3.33;73.51
5938;DHT22;2994;51.220;4.412;2022-12-10T09:39:41;3.38;73.35
5938;DHT22;2994;51.220;4.412;2022-12-10T09:47:17;3.34;73.61
5938;DHT22;2994;51.220;4.412;2022-12-10T09:49:52;3.42;73.52
5938;DHT22;2994;51.220;4.412;2022-12-10T09:52:23;3.43;73.48
5938;DHT22;2994;51.220;4.412;2022-12-10T09:54:53;3.44;73.37
5938;DHT22;2994;51.220;4.412;2022-12-10T09:57:26;3.46;73.30
5938;DHT22;2994;51.220;4.412;2022-12-10T09:59:52;3.47;73.29
5938;DHT22;2994;51.220;4.412;2022-12-10T10:02:23;3.48;73.26
5938;DHT22;2994;51.220;4.412;2022-12-10T10:04:50;3.47;73.31
5938;DHT22;2994;51.220;4.412;2022-12-10T10:07:26;3.50;73.23
5938;DHT22;2994;51.220;4.412;2022-12-10T10:12:30;3.54;73.35
5938;DHT22;2994;51.220;4.412;2022-12-10T10:14:56;3.62;73.15
5938;DHT22;2994;51.220;4.412;2022-12-10T10:17:42;3.64;73.11
5938;DHT22;2994;51.220;4.412;2022-12-10T10:20:13;3.62;73.22
5938;DHT22;2994;51.220;4.412;2022-12-10T10:22:59;3.67;73.41
5938;DHT22;2994;51.220;4.412;2022-12-10T10:25:25;3.65;73.18
5938;DHT22;2994;51.220;4.412;2022-12-10T10:27:51;3.62;73.41
5938;DHT22;2994;51.220;4.412;2022-12-10T10:30:19;3.62;73.40
5938;DHT22;2994;51.220;4.412;2022-12-10T10:32:53;3.62;73.44
5938;DHT22;2994;51.220;4.412;2022-12-10T10:35:32;3.58;73.57
5938;DHT22;2994;51.220;4.412;2022-12-10T10:38:05;3.64;73.23
5938;DHT22;2994;51.220;4.412;2022-12-10T10:40:43;3.68;73.21
5938;DHT22;2994;51.220;4.412;2022-12-10T10:43:41;3.73;73.26
5938;DHT22;2994;51.220;4.412;2022-12-10T10:46:20;3.73;73.19
5938;DHT22;2994;51.220;4.412;2022-12-10T10:48:46;3.79;73.18
5938;DHT22;2994;51.220;4.412;2022-12-10T10:53:54;3.78;73.02
5938;DHT22;2994;51.220;4.412;2022-12-10T11:01:48;3.87;72.98
5938;DHT22;2994;51.220;4.412;2022-12-10T11:04:16;3.87;72.67
5938;DHT22;2994;51.220;4.412;2022-12-10T11:06:43;3.85;72.89
5938;DHT22;2994;51.220;4.412;2022-12-10T11:09:27;3.86;72.99
5938;DHT22;2994;51.220;4.412;2022-12-10T11:11:59;3.77;73.43
5938;DHT22;2994;51.220;4.412;2022-12-10T11:14:38;3.86;73.12
5938;DHT22;2994;51.220;4.412;2022-12-10T11:19:41;3.94;72.90
5938;DHT22;2994;51.220;4.412;2022-12-10T11:22:33;3.95;73.11
5938;DHT22;2994;51.220;4.412;2022-12-10T11:25:05;4.03;72.69
5938;DHT22;2994;51.220;4.412;2022-12-10T11:30:20;3.99;73.03
5938;DHT22;2994;51.220;4.412;2022-12-10T11:38:29;4.06;73.16
5938;DHT22;2994;51.220;4.412;2022-12-10T11:41:06;4.12;73.06
5938;DHT22;2994;51.220;4.412;2022-12-10T11:47:01;4.13;73.09
5938;DHT22;2994;51.220;4.412;2022-12-10T11:49:40;4.14;73.13
5938;DHT22;2994;51.220;4.412;2022-12-10T11:52:36;4.17;73.20
5938;DHT22;2994;51.220;4.412;2022-12-10T11:55:27;4.24;73.05
5938;DHT22;2994;51.220;4.412;2022-12-10T11:58:20;4.23;73.13
5938;DHT22;2994;51.220;4.412;2022-12-10T12:01:14;4.29;73.21
5938;DHT22;2994;51.220;4.412;2022-12-10T12:03:52;4.32;73.09
5938;DHT22;2994;51.220;4.412;2022-12-10T12:09:09;4.33;73.11
5938;DHT22;2994;51.220;4.412;2022-12-10T12:14:38;4.38;72.92
5938;DHT22;2994;51.220;4.412;2022-12-10T12:17:42;4.36;73.25
5938;DHT22;2994;51.220;4.412;2022-12-10T12:20:16;4.37;73.07
5938;DHT22;2994;51.220;4.412;2022-12-10T12:22:53;4.38;73.18
5938;DHT22;2994;51.220;4.412;2022-12-10T12:25:24;4.42;73.09
5938;DHT22;2994;51.220;4.412;2022-12-10T12:28:08;4.41;73.28
5938;DHT22;2994;51.220;4.412;2022-12-10T12:30:37;4.45;73.35
5938;DHT22;2994;51.220;4.412;2022-12-10T12:33:10;4.51;73.23
5938;DHT22;2994;51.220;4.412;2022-12-10T12:35:43;4.46;73.32
5938;DHT22;2994;51.220;4.412;2022-12-10T12:38:21;4.46;73.34
5938;DHT22;2994;51.220;4.412;2022-12-10T12:40:56;4.47;73.34
5938;DHT22;2994;51.220;4.412;2022-12-10T12:43:51;4.52;73.26
5938;DHT22;2994;51.220;4.412;2022-12-10T12:46:32;4.48;73.66
5938;DHT22;2994;51.220;4.412;2022-12-10T12:49:34;4.58;73.26
5938;DHT22;2994;51.220;4.412;2022-12-10T12:54:26;4.63;73.25
5938;DHT22;2994;51.220;4.412;2022-12-10T12:56:59;4.65;73.43
5938;DHT22;2994;51.220;4.412;2022-12-10T13:05:03;4.73;73.19
5938;DHT22;2994;51.220;4.412;2022-12-10T13:07:31;4.77;73.20
5938;DHT22;2994;51.220;4.412;2022-12-10T13:12:45;4.76;73.71
5938;DHT22;2994;51.220;4.412;2022-12-10T13:15:32;4.81;73.63
5938;DHT22;2994;51.220;4.412;2022-12-10T13:20:40;4.91;73.28
5938;DHT22;2994;51.220;4.412;2022-12-10T13:28:49;4.95;73.28
5938;DHT22;2994;51.220;4.412;2022-12-10T13:36:37;4.97;73.35
5938;DHT22;2994;51.220;4.412;2022-12-10T13:39:34;4.94;73.47
5938;DHT22;2994;51.220;4.412;2022-12-10T13:45:01;4.98;73.29
5938;DHT22;2994;51.220;4.412;2022-12-10T13:50:03;5.01;73.17
5938;DHT22;2994;51.220;4.412;2022-12-10T13:55:49;5.03;73.22
5938;DHT22;2994;51.220;4.412;2022-12-10T14:06:41;5.04;73.41
5938;DHT22;2994;51.220;4.412;2022-12-10T14:09:24;5.06;73.39
5938;DHT22;2994;51.220;4.412;2022-12-10T14:14:26;5.05;73.47
5938;DHT22;2994;51.220;4.412;2022-12-10T14:16:54;5.03;73.60
5938;DHT22;2994;51.220;4.412;2022-12-10T14:19:20;5.06;73.48
5938;DHT22;2994;51.220;4.412;2022-12-10T14:21:49;5.02;73.77
5938;DHT22;2994;51.220;4.412;2022-12-10T14:24:36;5.07;73.65
5938;DHT22;2994;51.220;4.412;2022-12-10T14:27:25;5.10;73.54
5938;DHT22;2994;51.220;4.412;2022-12-10T14:30:00;5.10;73.56
5938;DHT22;2994;51.220;4.412;2022-12-10T14:32:33;5.08;73.68
5938;DHT22;2994;51.220;4.412;2022-12-10T14:35:00;5.11;73.44
5938;DHT22;2994;51.220;4.412;2022-12-10T14:37:28;5.10;73.61
5938;DHT22;2994;51.220;4.412;2022-12-10T14:39:55;5.12;73.64
5938;DHT22;2994;51.220;4.412;2022-12-10T14:42:21;5.09;73.67
5938;DHT22;2994;51.220;4.412;2022-12-10T14:44:54;5.12;73.73
5938;DHT22;2994;51.220;4.412;2022-12-10T14:47:21;5.11;73.85
5938;DHT22;2994;51.220;4.412;2022-12-10T14:49:49;5.13;73.75
5938;DHT22;2994;51.220;4.412;2022-12-10T14:52:30;5.12;73.81
5938;DHT22;2994;51.220;4.412;2022-12-10T14:54:58;5.13;73.77
5938;DHT22;2994;51.220;4.412;2022-12-10T14:57:40;5.12;73.80
5938;DHT22;2994;51.220;4.412;2022-12-10T15:00:12;5.15;73.84
5938;DHT22;2994;51.220;4.412;2022-12-10T15:02:40;5.15;73.92
5938;DHT22;2994;51.220;4.412;2022-12-10T15:05:13;5.16;73.99
5938;DHT22;2994;51.220;4.412;2022-12-10T15:07:40;5.16;73.97
5938;DHT22;2994;51.220;4.412;2022-12-10T15:10:11;5.17;74.06
5938;DHT22;2994;51.220;4.412;2022-12-10T15:12:42;5.18;74.08
5938;DHT22;2994;51.220;4.412;2022-12-10T15:15:24;5.20;74.13
5938;DHT22;2994;51.220;4.412;2022-12-10T15:18:08;5.19;74.05
5938;DHT22;2994;51.220;4.412;2022-12-10T15:23:25;5.18;74.11
5938;DHT22;2994;51.220;4.412;2022-12-10T15:26:04;5.19;74.14
5938;DHT22;2994;51.220;4.412;2022-12-10T15:28:39;5.16;74.45
5938;DHT22;2994;51.220;4.412;2022-12-10T15:33:45;5.22;74.11
5938;DHT22;2994;51.220;4.412;2022-12-10T15:36:27;5.21;74.15
5938;DHT22;2994;51.220;4.412;2022-12-10T15:38:54;5.20;74.14
5938;DHT22;2994;51.220;4.412;2022-12-10T15:41:32;5.20;74.22
5938;DHT22;2994;51.220;4.412;2022-12-10T15:44:02;5.21;74.27
5938;DHT22;2994;51.220;4.412;2022-12-10T15:46:28;5.19;74.46
5938;DHT22;2994;51.220;4.412;2022-12-10T15:48:53;5.23;74.33
5938;DHT22;2994;51.220;4.412;2022-12-10T15:51:19;5.22;74.35
5938;DHT22;2994;51.220;4.412;2022-12-10T15:53:45;5.24;74.29
5938;DHT22;2994;51.220;4.412;2022-12-10T15:56:10;5.23;74.33
5938;DHT22;2994;51.220;4.412;2022-12-10T15:58:35;5.27;74.18
5938;DHT22;2994;51.220;4.412;2022-12-10T16:01:01;5.27;74.21
5938;DHT22;2994;51.220;4.412;2022-12-10T16:03:28;5.27;74.20
5938;DHT22;2994;51.220;4.412;2022-12-10T16:05:54;5.30;74.18
5938;DHT22;2994;51.220;4.412;2022-12-10T16:08:23;5.24;74.48
5938;DHT22;2994;51.220;4.412;2022-12-10T16:10:51;5.30;74.24
5938;DHT22;2994;51.220;4.412;2022-12-10T16:13:19;5.28;74.28
5938;DHT22;2994;51.220;4.412;2022-12-10T16:16:04;5.30;74.33
5938;DHT22;2994;51.220;4.412;2022-12-10T16:18:30;5.33;74.18
5938;DHT22;2994;51.220;4.412;2022-12-10T16:20:56;5.35;74.28
5938;DHT22;2994;51.220;4.412;2022-12-10T16:23:21;5.38;74.28
5938;DHT22;2994;51.220;4.412;2022-12-10T16:25:46;5.38;74.18
5938;DHT22;2994;51.220;4.412;2022-12-10T16:28:18;5.39;74.14
5938;DHT22;2994;51.220;4.412;2022-12-10T16:30:51;5.40;74.07
5938;DHT22;2994;51.220;4.412;2022-12-10T16:33:19;5.35;74.35
5938;DHT22;2994;51.220;4.412;2022-12-10T16:35:45;5.41;74.09
5938;DHT22;2994;51.220;4.412;2022-12-10T16:38:11;5.42;74.02
5938;DHT22;2994;51.220;4.412;2022-12-10T16:40:38;5.42;74.00
5938;DHT22;2994;51.220;4.412;2022-12-10T16:43:04;5.40;74.10
5938;DHT22;2994;51.220;4.412;2022-12-10T16:45:34;5.39;74.11
5938;DHT22;2994;51.220;4.412;2022-12-10T16:48:00;5.46;73.89
5938;DHT22;2994;51.220;4.412;2022-12-10T16:50:26;5.48;73.84
5938;DHT22;2994;51.220;4.412;2022-12-10T16:52:52;5.46;73.85
5938;DHT22;2994;51.220;4.412;2022-12-10T16:55:21;5.46;73.92
5938;DHT22;2994;51.220;4.412;2022-12-10T16:57:47;5.41;74.05
5938;DHT22;2994;51.220;4.412;2022-12-10T17:00:15;5.47;74.01
5938;DHT22;2994;51.220;4.412;2022-12-10T17:02:42;5.49;74.02
5938;DHT22;2994;51.220;4.412;2022-12-10T17:05:27;5.49;74.09
5938;DHT22;2994;51.220;4.412;2022-12-10T17:07:53;5.50;73.99
5938;DHT22;2994;51.220;4.412;2022-12-10T17:10:19;5.52;73.98
5938;DHT22;2994;51.220;4.412;2022-12-10T17:13:04;5.51;73.95
5938;DHT22;2994;51.220;4.412;2022-12-10T17:15:30;5.50;74.00
5938;DHT22;2994;51.220;4.412;2022-12-10T17:17:55;5.51;73.84
5938;DHT22;2994;51.220;4.412;2022-12-10T17:20:20;5.53;73.84
5938;DHT22;2994;51.220;4.412;2022-12-10T17:22:46;5.55;73.72
5938;DHT22;2994;51.220;4.412;2022-12-10T17:25:11;5.55;73.61
5938;DHT22;2994;51.220;4.412;2022-12-10T17:27:37;5.55;73.54
5938;DHT22;2994;51.220;4.412;2022-12-10T17:30:03;5.55;73.53
5938;DHT22;2994;51.220;4.412;2022-12-10T17:32:29;5.55;73.50
5938;DHT22;2994;51.220;4.412;2022-12-10T17:34:54;5.54;73.50
5938;DHT22;2994;51.220;4.412;2022-12-10T17:37:20;5.56;73.35
5938;DHT22;2994;51.220;4.412;2022-12-10T17:39:48;5.56;73.36
5938;DHT22;2994;51.220;4.412;2022-12-10T17:42:14;5.57;73.23
5938;DHT22;2994;51.220;4.412;2022-12-10T17:44:39;5.57;73.32
5938;DHT22;2994;51.220;4.412;2022-12-10T17:47:21;5.37;74.05
5938;DHT22;2994;51.220;4.412;2022-12-10T17:49:47;5.54;73.63
5938;DHT22;2994;51.220;4.412;2022-12-10T17:52:12;5.56;73.49
5938;DHT22;2994;51.220;4.412;2022-12-10T17:54:38;5.55;73.59
5938;DHT22;2994;51.220;4.412;2022-12-10T17:57:10;5.61;73.32
5938;DHT22;2994;51.220;4.412;2022-12-10T17:59:36;5.60;73.30
5938;DHT22;2994;51.220;4.412;2022-12-10T18:02:02;5.66;73.11
5938;DHT22;2994;51.220;4.412;2022-12-10T18:04:27;5.63;73.01
5938;DHT22;2994;51.220;4.412;2022-12-10T18:06:53;5.60;73.05
5938;DHT22;2994;51.220;4.412;2022-12-10T18:09:18;5.54;73.37
5938;DHT22;2994;51.220;4.412;2022-12-10T18:11:46;5.60;73.14
5938;DHT22;2994;51.220;4.412;2022-12-10T18:14:12;5.62;73.19
5938;DHT22;2994;51.220;4.412;2022-12-10T18:16:39;5.55;73.45